Time;durP1;ratioP1;P1;durP2;ratioP2;P2;SDS_P1;SDS_P2;PMS_P1;PMS_P2;Temp;Humidity;BMP_temperature;BMP_pressure;BME280_temperature;BME280_humidity;BME280_pressure;Samples;Min_cycle;Max_cycle;Signal;HPM_P1;HPM_P2
2022/12/16 00:00:26;;;;;;;30.33;19.90;;;-1.00;99.90;;;;;;5040978;28;20037;-39
2022/12/16 00:02:52;;;;;;;29.57;18.60;;;-1.00;99.90;;;;;;5041695;28;20593;-39
2022/12/16 00:05:19;;;;;;;30.57;19.10;;;-1.00;99.90;;;;;;5041441;28;20025;-40
2022/12/16 00:07:45;;;;;;;29.83;18.67;;;-1.00;99.90;;;;;;5040430;28;20098;-40
2022/12/16 00:10:14;;;;;;;29.37;17.83;;;-1.00;99.90;;;;;;5040652;28;20733;-40
2022/12/16 00:12:40;;;;;;;29.63;17.93;;;-0.90;99.90;;;;;;5041362;28;20029;-41
2022/12/16 00:15:09;;;;;;;25.83;18.30;;;-0.90;99.90;;;;;;5040526;28;20043;-39
2022/12/16 00:17:35;;;;;;;27.17;17.70;;;-0.90;99.90;;;;;;5040648;28;20388;-38
2022/12/16 00:20:04;;;;;;;26.33;17.80;;;-0.80;99.90;;;;;;5041303;28;20025;-39
2022/12/16 00:22:29;;;;;;;26.57;16.93;;;-0.80;99.90;;;;;;5040860;28;20070;-38
2022/12/16 00:24:55;;;;;;;25.23;17.17;;;-0.80;99.90;;;;;;5041239;28;20021;-36
2022/12/16 00:27:20;;;;;;;25.70;17.07;;;-0.70;99.90;;;;;;5040406;28;20106;-37
2022/12/16 00:29:46;;;;;;;25.08;17.23;;;-0.70;99.90;;;;;;5041216;28;20074;-38
2022/12/16 00:32:11;;;;;;;28.63;17.90;;;-0.70;99.90;;;;;;5040372;28;20110;-40
2022/12/16 00:34:37;;;;;;;24.38;15.52;;;-0.70;99.90;;;;;;5040331;28;20052;-40
2022/12/16 00:37:03;;;;;;;25.07;16.83;;;-0.60;99.90;;;;;;5040731;28;20140;-39
2022/12/16 00:39:28;;;;;;;25.07;16.43;;;-0.60;99.90;;;;;;5040670;28;20052;-39
2022/12/16 00:41:54;;;;;;;26.43;17.50;;;-0.60;99.90;;;;;;5040160;28;20472;-37
2022/12/16 00:44:19;;;;;;;25.20;16.40;;;-0.60;99.90;;;;;;5040527;28;20594;-40
2022/12/16 00:46:45;;;;;;;25.40;16.57;;;-0.50;99.90;;;;;;5040433;28;20029;-39
2022/12/16 00:49:10;;;;;;;29.20;18.53;;;-0.60;99.90;;;;;;5040438;28;20059;-40
2022/12/16 00:51:40;;;;;;;26.47;17.53;;;-0.60;99.90;;;;;;5040570;28;20079;-40
2022/12/16 00:54:05;;;;;;;27.42;17.73;;;-0.50;99.90;;;;;;5040777;28;20025;-41
2022/12/16 00:56:31;;;;;;;24.87;16.97;;;-0.50;99.90;;;;;;5040459;28;20037;-40
2022/12/16 00:58:56;;;;;;;27.25;17.83;;;-0.50;99.90;;;;;;5040493;28;20052;-41
2022/12/16 01:01:22;;;;;;;25.10;16.52;;;-0.50;99.90;;;;;;5040581;28;20097;-40
2022/12/16 01:03:47;;;;;;;24.77;17.00;;;-0.50;99.90;;;;;;5040447;28;20819;-37
2022/12/16 01:06:15;;;;;;;29.80;19.13;;;-0.50;99.90;;;;;;5040270;28;20021;-40
2022/12/16 01:08:47;;;;;;;26.47;17.40;;;-0.50;99.90;;;;;;5040807;28;20110;-39
2022/12/16 01:11:14;;;;;;;26.73;18.37;;;-0.50;99.90;;;;;;5040590;28;20017;-40
2022/12/16 01:13:40;;;;;;;29.90;18.57;;;-0.50;99.90;;;;;;5036531;28;20771;-39
2022/12/16 01:16:06;;;;;;;25.73;17.23;;;-0.50;99.90;;;;;;5040840;28;20033;-39
2022/12/16 01:18:31;;;;;;;25.23;16.80;;;-0.50;99.90;;;;;;5039775;28;20067;-37
2022/12/16 01:21:09;;;;;;;27.57;18.07;;;-0.50;99.90;;;;;;5040367;28;20025;-41
2022/12/16 01:23:35;;;;;;;25.67;16.93;;;-0.50;99.90;;;;;;5039446;28;20064;-41
2022/12/16 01:26:01;;;;;;;28.77;18.40;;;-0.50;99.90;;;;;;5040510;28;20107;-39
2022/12/16 01:28:27;;;;;;;27.53;17.50;;;-0.50;99.90;;;;;;5040215;28;20061;-39
2022/12/16 01:31:00;;;;;;;29.67;18.20;;;-0.50;99.90;;;;;;5039689;28;20060;-41
2022/12/16 01:33:29;;;;;;;;;;;-0.50;99.90;;;;;;5040890;28;20048;-40
2022/12/16 01:36:03;;;;;;;29.80;18.52;;;-0.40;99.90;;;;;;5039565;28;20039;-39
2022/12/16 01:38:29;;;;;;;24.97;16.50;;;-0.40;99.90;;;;;;5039331;28;20037;-40
2022/12/16 01:40:54;;;;;;;26.37;17.20;;;-0.40;99.90;;;;;;5039854;28;20079;-40
2022/12/16 01:43:24;;;;;;;30.23;19.87;;;-0.40;99.90;;;;;;5039849;28;20365;-38
2022/12/16 01:45:52;;;;;;;31.27;20.47;;;-0.50;99.90;;;;;;5039627;28;20028;-39
2022/12/16 01:48:37;;;;;;;31.13;19.73;;;-0.50;99.90;;;;;;5043594;28;20033;-40
2022/12/16 01:51:17;;;;;;;32.33;20.60;;;-0.50;99.90;;;;;;5043572;28;20031;-40
2022/12/16 01:53:43;;;;;;;32.77;20.00;;;-0.50;99.90;;;;;;5042487;28;20025;-40
2022/12/16 01:56:15;;;;;;;29.13;19.65;;;-0.50;99.90;;;;;;5042382;28;20743;-40
2022/12/16 01:58:41;;;;;;;28.47;17.70;;;-0.40;99.90;;;;;;5038991;28;20036;-41
2022/12/16 02:01:07;;;;;;;27.95;18.88;;;-0.40;99.90;;;;;;5043148;28;20180;-38
2022/12/16 02:03:35;;;;;;;24.67;17.43;;;-0.40;99.90;;;;;;5043079;28;20031;-39
2022/12/16 02:06:02;;;;;;;29.07;18.57;;;-0.40;99.90;;;;;;5042941;28;20021;-40
2022/12/16 02:08:27;;;;;;;27.52;18.45;;;-0.40;99.90;;;;;;5043351;28;20037;-40
2022/12/16 02:11:26;;;;;;;29.50;18.23;;;-0.40;99.90;;;;;;5043388;28;20025;-40
2022/12/16 02:14:00;;;;;;;26.83;17.70;;;-0.40;99.90;;;;;;5042202;28;20029;-40
2022/12/16 02:16:46;;;;;;;29.03;17.43;;;-0.40;99.90;;;;;;5043075;28;20036;-39
2022/12/16 02:19:39;;;;;;;26.83;17.07;;;-0.30;99.90;;;;;;5042793;28;20123;-39
2022/12/16 02:22:13;;;;;;;26.42;17.55;;;-0.30;99.90;;;;;;5042475;28;20036;-41
2022/12/16 02:25:21;;;;;;;25.73;17.13;;;-0.30;99.90;;;;;;5043040;28;20051;-39
2022/12/16 02:28:06;;;;;;;28.80;18.40;;;-0.30;99.90;;;;;;5043111;28;20112;-41
2022/12/16 02:30:34;;;;;;;27.67;18.10;;;-0.30;99.90;;;;;;5042442;28;20043;-40
2022/12/16 02:33:18;;;;;;;25.93;17.90;;;-0.20;99.90;;;;;;5041932;28;20085;-38
2022/12/16 02:35:52;;;;;;;29.57;19.03;;;-0.20;99.90;;;;;;5041875;28;20031;-40
2022/12/16 02:38:45;;;;;;;26.50;18.15;;;-0.20;99.90;;;;;;5023485;28;20044;-39
2022/12/16 02:41:32;;;;;;;26.83;17.88;;;-0.20;99.90;;;;;;5040768;28;20040;-39
2022/12/16 02:44:05;;;;;;;26.90;16.80;;;-0.20;99.90;;;;;;5042748;28;20046;-40
2022/12/16 02:46:34;;;;;;;;;;;-0.20;99.90;;;;;;5043334;28;20029;-40
2022/12/16 02:49:12;;;;;;;26.63;17.70;;;-0.20;99.90;;;;;;5042438;28;19915;-41
2022/12/16 02:51:38;;;;;;;26.20;17.97;;;-0.20;99.90;;;;;;5042674;28;20120;-38
2022/12/16 02:54:07;;;;;;;28.58;18.77;;;-0.20;99.90;;;;;;5042432;28;20041;-38
2022/12/16 02:56:42;;;;;;;26.87;18.60;;;-0.20;99.90;;;;;;5041960;28;20100;-39
2022/12/16 02:59:10;;;;;;;29.63;18.13;;;-0.20;99.90;;;;;;5042804;28;20051;-40
2022/12/16 03:01:46;;;;;;;28.10;18.80;;;-0.10;99.90;;;;;;5042306;28;20021;-40
2022/12/16 03:04:35;;;;;;;31.63;19.47;;;-0.10;99.90;;;;;;5022516;28;20464;-41
2022/12/16 03:07:04;;;;;;;29.80;18.90;;;-0.10;99.90;;;;;;5040686;28;20743;-40
2022/12/16 03:09:33;;;;;;;28.23;18.83;;;-0.10;99.90;;;;;;5042665;28;20068;-39
2022/12/16 03:12:02;;;;;;;26.97;18.20;;;-0.10;99.90;;;;;;5041867;28;20033;-40
2022/12/16 03:14:30;;;;;;;30.77;19.23;;;-0.10;99.90;;;;;;5042433;28;20037;-41
2022/12/16 03:16:57;;;;;;;28.40;19.60;;;-0.10;99.90;;;;;;5041226;28;20059;-37
2022/12/16 03:19:25;;;;;;;27.37;18.30;;;-0.10;99.90;;;;;;5041962;28;20090;-37
2022/12/16 03:22:13;;;;;;;27.17;17.17;;;-0.10;99.90;;;;;;5041836;28;20047;-39
2022/12/16 03:24:39;;;;;;;28.60;18.73;;;-0.10;99.90;;;;;;5041175;28;20138;-37
2022/12/16 03:27:19;;;;;;;28.52;18.50;;;-0.10;99.90;;;;;;5041657;28;20079;-40
2022/12/16 03:30:06;;;;;;;28.77;18.92;;;-0.10;99.90;;;;;;5041860;28;20091;-41
2022/12/16 03:33:02;;;;;;;30.77;19.92;;;-0.10;99.90;;;;;;5041275;28;20111;-35
2022/12/16 03:35:35;;;;;;;27.25;18.85;;;-0.10;99.90;;;;;;5022178;28;20659;-35
2022/12/16 03:38:03;;;;;;;29.40;18.77;;;-0.10;99.90;;;;;;5038603;28;20044;-38
2022/12/16 03:40:31;;;;;;;30.98;20.27;;;-0.10;99.90;;;;;;5041562;28;20033;-39
2022/12/16 03:43:00;;;;;;;29.88;20.15;;;-0.20;99.90;;;;;;5040169;28;20060;-42
2022/12/16 03:45:31;;;;;;;29.13;18.90;;;-0.20;99.90;;;;;;5040776;28;20064;-39
2022/12/16 03:47:58;;;;;;;26.80;18.48;;;-0.20;99.90;;;;;;5041225;28;20033;-41
2022/12/16 03:50:35;;;;;;;27.27;18.48;;;-0.20;99.90;;;;;;5041832;28;20025;-42
2022/12/16 03:53:02;;;;;;;30.15;18.17;;;-0.20;99.90;;;;;;5040576;28;20024;-40
2022/12/16 03:55:28;;;;;;;31.13;19.65;;;-0.20;99.90;;;;;;5041437;28;20036;-40
2022/12/16 03:57:55;;;;;;;30.63;19.90;;;-0.20;99.90;;;;;;5040800;28;20041;-39
2022/12/16 04:00:21;;;;;;;31.63;20.48;;;-0.20;99.90;;;;;;5040266;28;20032;-39
2022/12/16 04:02:47;;;;;;;31.23;19.05;;;-0.20;99.90;;;;;;5041152;28;20029;-36
2022/12/16 04:05:12;;;;;;;29.15;19.55;;;-0.20;99.90;;;;;;5040783;28;20524;-39
2022/12/16 04:07:38;;;;;;;32.78;19.80;;;-0.10;99.90;;;;;;5040909;28;20021;-40
2022/12/16 04:10:07;;;;;;;31.13;19.00;;;-0.10;99.90;;;;;;5041322;28;20044;-39
2022/12/16 04:26:24;;;;;;;34.58;21.63;;;0.00;99.90;;;;;;5041062;28;20043;-39
2022/12/16 04:28:50;;;;;;;33.80;20.10;;;0.00;99.90;;;;;;5040353;28;20025;-39
2022/12/16 04:31:15;;;;;;;31.60;19.15;;;-0.10;99.90;;;;;;5040989;28;21065;-40
